Knob Fork, West Virginia
Current Conditions -  °F | °C
As of 6:53 AM on Thursday 29 Jan 2015 (Local Time) from KCKB Reporting Station
Overcast Overcast  
Wind Chill: 22°   Ceiling: 10000
Heat Index: 22°   Visibility: 10mi
Dew Point: 18°   Wind: 0mph
Humidity: 85%   Direction: NA
Pressure: 30.08"   Gusts: NA
Location:  39.6641°N, 80.5775°W
Report Text: KCKB 291153Z 00000KT 10SM OVC100 M06/M08 A3008 RMK AO2 UPB11E19 SLP198 P0000 60000 T10561078 11056 21078 56031
Loading
Personal Weather Stations






























Interactive Weather Map New forecast layout! Learn more

10-Day Weather Forecast

Advertisements
Track Severe Weather on mobile